Time;durP1;ratioP1;P1;durP2;ratioP2;P2;SDS_P1;SDS_P2;PMS_P1;PMS_P2;Temp;Humidity;BMP_temperature;BMP_pressure;BME280_temperature;BME280_humidity;BME280_pressure;Samples;Min_cycle;Max_cycle;Signal;HPM_P1;HPM_P2
2022/01/30 00:00:00;;;;;;;11.38;3.55;;;;;;;5.44;53.39;99839.78;4475294;31;33609;-76
2022/01/30 00:02:44;;;;;;;13.25;3.70;;;;;;;5.73;52.95;99838.38;4487391;31;33945;-76
2022/01/30 00:05:14;;;;;;;12.50;3.55;;;;;;;5.86;53.18;99831.34;4486132;31;35203;-76
2022/01/30 00:07:50;;;;;;;9.45;3.17;;;;;;;5.71;53.87;99832.25;4473929;31;33949;-76
2022/01/30 00:10:24;;;;;;;;;;;;;;;5.91;53.38;99833.56;4495256;31;33214;-76
2022/01/30 00:13:00;;;;;;;8.10;3.62;;;;;;;5.89;54.23;99825.56;4486769;31;33552;-76
2022/01/30 00:15:42;;;;;;;11.18;3.58;;;;;;;5.91;54.98;99825.41;4474373;31;34419;-76
2022/01/30 00:23:50;;;;;;;8.73;3.60;;;;;;;5.65;56.07;99816.63;4475147;31;33362;-76
2022/01/30 00:26:31;;;;;;;9.75;3.47;;;;;;;5.66;56.37;99804.72;4469993;31;34247;-76
2022/01/30 00:29:16;;;;;;;9.48;3.78;;;;;;;5.68;56.04;99797.22;4500580;31;34789;-76
2022/01/30 00:32:12;;;;;;;12.93;4.03;;;;;;;5.57;56.42;99788.41;4474917;31;31883;-76
2022/01/30 00:35:06;;;;;;;8.25;3.33;;;;;;;5.78;55.82;99770.63;4486402;31;32188;-76
2022/01/30 00:37:43;;;;;;;12.30;4.53;;;;;;;5.80;55.50;99760.41;4488025;31;35238;-76
2022/01/30 00:40:39;;;;;;;8.60;3.80;;;;;;;5.76;55.75;99748.19;4491335;31;34055;-76
2022/01/30 00:43:18;;;;;;;11.57;3.55;;;;;;;5.97;55.13;99734.81;4475333;31;31787;-76
2022/01/30 00:45:57;;;;;;;12.85;3.95;;;;;;;5.94;55.03;99743.34;4475981;31;34049;-76
2022/01/30 00:48:30;;;;;;;9.15;4.03;;;;;;;5.83;55.61;99727.37;4463613;31;33002;-76
2022/01/30 00:51:00;;;;;;;10.27;4.05;;;;;;;5.92;55.02;99729.88;4475367;31;34122;-76
2022/01/30 00:53:38;;;;;;;11.85;4.05;;;;;;;5.86;55.03;99735.16;4488749;31;33370;-76
2022/01/30 00:56:12;;;;;;;10.85;4.12;;;;;;;5.68;55.46;99737.31;4488176;31;32202;-76
2022/01/30 00:58:52;;;;;;;16.60;3.87;;;;;;;5.72;54.90;99722.31;4473447;32;35283;-76
2022/01/30 01:01:23;;;;;;;9.57;4.10;;;;;;;5.64;55.31;99715.03;4469357;31;33886;-76
2022/01/30 01:04:04;;;;;;;13.43;3.90;;;;;;;5.61;55.50;99716.25;4476016;31;31960;-76
2022/01/30 01:06:48;;;;;;;9.68;3.62;;;;;;;5.76;55.18;99727.25;4462997;31;32931;-76
2022/01/30 01:09:36;;;;;;;13.18;4.25;;;;;;;5.71;55.40;99739.69;4488937;31;34509;-76
2022/01/30 01:12:44;;;;;;;14.45;4.72;;;;;;;5.66;55.84;99739.38;4488116;31;34705;-76
2022/01/30 01:24:04;;;;;;;10.88;4.15;;;;;;;5.85;55.48;99698.09;4477017;31;33387;-76
2022/01/30 01:26:35;;;;;;;12.68;4.22;;;;;;;5.73;55.65;99699.53;4475234;31;31942;-76
2022/01/30 01:29:12;;;;;;;10.90;3.80;;;;;;;5.78;55.51;99710.72;4488050;31;33604;-76
2022/01/30 01:31:48;;;;;;;12.13;4.75;;;;;;;5.97;55.23;99699.41;4462145;31;33816;-76
2022/01/30 01:34:30;;;;;;;12.73;4.30;;;;;;;6.05;54.90;99683.00;4453561;32;32354;-76
2022/01/30 01:36:59;;;;;;;13.18;5.35;;;;;;;6.07;54.86;99691.84;4476719;31;33296;-75
2022/01/30 01:39:29;;;;;;;12.70;3.90;;;;;;;6.37;58.77;99665.56;4474955;31;34485;-76
2022/01/30 01:41:59;;;;;;;14.43;4.30;;;;;;;6.30;55.94;99663.75;4474886;31;34412;-76
2022/01/30 01:44:38;;;;;;;10.20;4.25;;;;;;;6.42;54.67;99673.22;4487850;31;34149;-75
2022/01/30 01:47:08;;;;;;;11.35;4.50;;;;;;;6.59;54.02;99661.09;4475958;31;33510;-75
2022/01/30 01:49:38;;;;;;;8.65;4.22;;;;;;;6.71;54.19;99650.59;4475158;31;33554;-76
2022/01/30 01:52:21;;;;;;;9.02;4.18;;;;;;;6.56;54.07;99642.37;4474875;31;35084;-75
2022/01/30 01:54:54;;;;;;;10.55;3.53;;;;;;;6.68;53.74;99638.19;4489901;31;34669;-74
2022/01/30 01:57:27;;;;;;;13.10;5.00;;;;;;;6.67;53.75;99643.81;4457242;32;31202;-75
2022/01/30 02:00:00;;;;;;;14.52;4.57;;;;;;;6.58;53.97;99629.41;4457284;32;32734;-76
2022/01/30 02:02:41;;;;;;;12.82;4.68;;;;;;;6.56;54.68;99636.94;4457939;32;34557;-74
2022/01/30 02:05:10;;;;;;;11.38;4.35;;;;;;;6.55;54.32;99632.50;4471462;32;33421;-74
2022/01/30 02:10:11;;;;;;;9.48;3.50;;;;;;;6.52;53.76;99619.25;4472753;32;33638;-73
2022/01/30 02:12:48;;;;;;;12.70;3.53;;;;;;;6.19;54.70;99622.28;4459847;32;32871;-74
2022/01/30 02:26:05;;;;;;;10.63;3.92;;;;;;;6.04;54.38;99594.12;4474460;32;34594;-74
2022/01/30 02:28:37;;;;;;;9.82;4.10;;;;;;;5.87;54.92;99592.53;4480437;32;33187;-74
2022/01/30 02:31:10;;;;;;;9.48;3.78;;;;;;;5.84;54.69;99585.59;4471123;32;34314;-73
2022/01/30 02:33:40;;;;;;;8.00;3.58;;;;;;;5.85;54.42;99581.00;4459589;32;33884;-74
2022/01/30 02:36:08;;;;;;;9.90;3.90;;;;;;;5.76;54.69;99563.00;4486128;32;33959;-73
2022/01/30 02:38:39;;;;;;;10.05;4.00;;;;;;;5.71;54.73;99571.72;4459159;32;32468;-74
2022/01/30 02:41:10;;;;;;;10.27;4.03;;;;;;;5.49;55.37;99565.22;4459609;32;33747;-74
2022/01/30 02:43:53;;;;;;;9.93;4.00;;;;;;;5.39;55.37;99545.56;4446988;32;32992;-73
2022/01/30 02:46:27;;;;;;;8.52;3.33;;;;;;;5.40;55.25;99539.09;4461129;32;32462;-73
2022/01/30 02:48:59;;;;;;;9.00;3.75;;;;;;;5.34;56.91;99519.91;4473056;32;33902;-74
2022/01/30 02:51:34;;;;;;;6.68;3.00;;;;;;;5.19;59.20;99528.84;4479348;32;33630;-73
2022/01/30 02:54:03;;;;;;;6.45;2.58;;;;;;;5.07;61.13;99519.41;4458421;32;32938;-74
2022/01/30 02:56:35;;;;;;;5.00;2.30;;;;;;;5.44;61.34;99521.37;4472679;32;33842;-73
2022/01/30 02:59:06;;;;;;;7.93;2.67;;;;;;;5.56;61.61;99514.50;4470546;32;33766;-73
2022/01/30 03:01:33;;;;;;;6.72;2.42;;;;;;;5.92;60.90;99535.66;4472868;32;34469;-73
2022/01/30 03:04:04;;;;;;;7.68;2.58;;;;;;;6.20;59.78;99514.97;4470908;32;34230;-74
2022/01/30 03:06:35;;;;;;;5.25;2.50;;;;;;;6.16;59.49;99507.34;4486310;32;34237;-74
2022/01/30 03:09:05;;;;;;;6.65;2.53;;;;;;;6.20;59.57;99505.97;4472263;32;34004;-74
2022/01/30 03:11:33;;;;;;;4.82;2.72;;;;;;;6.64;58.00;99494.22;4456140;32;33484;-74
2022/01/30 03:14:02;;;;;;;6.32;2.50;;;;;;;6.54;58.38;99500.81;4470586;32;34040;-74
2022/01/30 03:16:29;;;;;;;7.12;2.72;;;;;;;6.77;57.75;99497.97;4469013;32;34575;-74
2022/01/30 03:19:01;;;;;;;7.80;3.05;;;;;;;6.59;58.02;99495.63;4468375;32;33432;-74
2022/01/30 03:21:29;;;;;;;5.53;2.90;;;;;;;6.55;57.91;99498.91;4479477;32;34430;-73
2022/01/30 03:24:02;;;;;;;7.28;2.80;;;;;;;6.52;58.17;99493.84;4456944;32;34088;-74
2022/01/30 03:26:37;;;;;;;7.75;3.05;;;;;;;6.45;58.54;99484.75;4443284;32;33247;-73
2022/01/30 03:29:07;;;;;;;6.57;3.12;;;;;;;6.38;58.59;99470.19;4458911;32;33325;-74
2022/01/30 03:31:40;;;;;;;7.90;3.08;;;;;;;6.24;59.15;99491.78;4469291;32;34798;-74
2022/01/30 03:34:10;;;;;;;6.80;3.00;;;;;;;6.45;58.79;99465.66;4457534;32;34335;-74
2022/01/30 03:36:38;;;;;;;6.70;3.00;;;;;;;6.44;58.90;99463.97;4468947;32;33938;-74
2022/01/30 03:39:06;;;;;;;6.93;2.92;;;;;;;6.49;58.84;99462.38;4470056;32;33936;-73
2022/01/30 03:41:37;;;;;;;7.05;2.80;;;;;;;6.23;59.92;99460.13;4458512;32;32473;-73
2022/01/30 03:44:06;;;;;;;7.50;2.70;;;;;;;5.94;61.05;99465.50;4484490;32;33049;-74
2022/01/30 03:46:33;;;;;;;6.37;2.92;;;;;;;6.34;60.09;99453.34;4471863;32;34703;-73
2022/01/30 03:49:22;;;;;;;6.65;3.17;;;;;;;6.45;59.89;99454.75;4460559;32;31778;-73
2022/01/30 03:51:50;;;;;;;6.53;3.15;;;;;;;6.20;60.31;99452.31;4455503;32;33120;-73
2022/01/30 03:54:18;;;;;;;8.10;2.75;;;;;;;6.42;59.94;99477.78;4447403;32;35375;-73
2022/01/30 03:56:49;;;;;;;6.82;2.70;;;;;;;6.48;59.58;99473.47;4437401;32;32460;-74
2022/01/30 03:59:18;;;;;;;6.03;2.75;;;;;;;6.38;59.84;99464.72;4443173;32;31736;-74
2022/01/30 04:01:46;;;;;;;9.82;2.85;;;;;;;6.70;58.95;99460.75;4443308;32;32249;-74
2022/01/30 04:04:15;;;;;;;6.05;2.95;;;;;;;6.54;59.21;99445.44;4442654;32;33391;-74
2022/01/30 04:06:43;;;;;;;6.07;3.10;;;;;;;6.57;59.32;99440.44;4442921;32;33460;-74
2022/01/30 04:09:13;;;;;;;8.30;3.22;;;;;;;6.20;60.51;99449.59;4456329;32;33215;-73
2022/01/30 04:11:41;;;;;;;7.00;3.10;;;;;;;6.26;60.46;99446.13;4454420;32;34522;-74
2022/01/30 04:14:10;;;;;;;7.00;3.15;;;;;;;6.34;60.09;99438.88;4443335;32;34582;-73
2022/01/30 04:16:40;;;;;;;6.57;2.70;;;;;;;6.29;60.60;99423.09;4469822;32;34258;-73
2022/01/30 04:19:08;;;;;;;6.32;2.78;;;;;;;6.32;60.57;99432.78;4443135;32;34152;-73
2022/01/30 04:21:37;;;;;;;6.28;2.80;;;;;;;6.39;60.42;99434.56;4455783;32;33593;-74
2022/01/30 04:24:10;;;;;;;6.43;2.75;;;;;;;6.39;60.44;99429.09;4443660;32;34857;-73
2022/01/30 04:26:39;;;;;;;6.25;2.78;;;;;;;6.43;60.45;99444.06;4455803;32;34333;-73
2022/01/30 04:29:07;;;;;;;6.47;2.78;;;;;;;6.38;60.66;99427.41;4443143;32;33355;-74
2022/01/30 04:31:36;;;;;;;6.18;2.75;;;;;;;6.38;61.14;99429.28;4468222;32;32643;-74
2022/01/30 04:34:05;;;;;;;9.27;2.90;;;;;;;6.28;61.78;99432.31;4468369;32;35188;-73
2022/01/30 04:36:40;;;;;;;5.50;2.47;;;;;;;6.42;61.28;99425.16;4443341;32;34639;-73
2022/01/30 04:58:21;;;;;;;5.80;2.42;;;;;;;6.60;61.50;99428.31;4457391;32;33883;-73
2022/01/30 05:06:15;;;;;;;4.97;2.58;;;;;;;6.82;60.90;99432.81;4469273;32;34364;-73
2022/01/30 05:08:45;;;;;;;7.28;3.03;;;;;;;6.93;60.68;99431.47;4455391;32;35302;-73
2022/01/30 05:11:19;;;;;;;4.57;2.20;;;;;;;6.87;60.81;99435.78;4442775;32;33641;-73
2022/01/30 05:13:48;;;;;;;4.93;2.42;;;;;;;6.99;60.57;99432.56;4455075;32;33637;-74
2022/01/30 05:16:19;;;;;;;5.78;2.55;;;;;;;6.64;61.58;99437.81;4448832;32;34487;-74
2022/01/30 05:18:51;;;;;;;6.43;3.00;;;;;;;6.76;61.31;99430.84;4455085;32;34613;-73
2022/01/30 05:21:20;;;;;;;5.68;2.62;;;;;;;6.68;61.66;99433.66;4454805;32;34161;-73
2022/01/30 05:23:53;;;;;;;6.78;3.25;;;;;;;6.60;61.73;99441.94;4456769;32;33801;-73
2022/01/30 05:26:25;;;;;;;6.50;3.10;;;;;;;6.64;61.83;99436.97;4457366;32;34425;-73
2022/01/30 05:28:57;;;;;;;5.22;2.33;;;;;;;6.36;62.89;99431.38;4445077;32;33512;-73
2022/01/30 05:31:28;;;;;;;7.57;2.40;;;;;;;6.34;63.10;99422.53;4457434;32;34146;-73
2022/01/30 05:33:56;;;;;;;5.43;2.40;;;;;;;6.37;63.17;99420.28;4457197;32;34694;-73
2022/01/30 05:36:25;;;;;;;5.43;2.47;;;;;;;6.45;63.14;99424.78;4457245;32;34439;-73
2022/01/30 05:38:53;;;;;;;5.22;2.42;;;;;;;6.34;63.47;99417.94;4444190;32;33352;-73
2022/01/30 05:41:24;;;;;;;5.00;2.37;;;;;;;6.51;62.93;99418.53;4456772;32;32780;-73
2022/01/30 05:43:58;;;;;;;7.78;2.90;;;;;;;6.64;62.56;99429.63;4456968;32;33874;-74
2022/01/30 05:46:37;;;;;;;6.05;2.40;;;;;;;6.52;63.03;99423.81;4444824;32;34976;-73
2022/01/30 05:49:06;;;;;;;5.07;2.17;;;;;;;6.50;62.74;99425.88;4456659;32;32495;-73
2022/01/30 05:51:33;;;;;;;5.05;2.40;;;;;;;6.70;62.37;99420.69;4445802;32;32613;-73
2022/01/30 05:54:01;;;;;;;6.65;2.42;;;;;;;6.60;62.53;99429.16;4460877;32;34132;-73
2022/01/30 05:56:29;;;;;;;4.93;2.37;;;;;;;6.84;61.62;99414.34;4455151;32;33933;-73
2022/01/30 05:58:58;;;;;;;6.18;2.20;;;;;;;6.62;62.70;99428.97;4457879;32;35307;-73
2022/01/30 06:01:28;;;;;;;5.35;2.33;;;;;;;6.63;62.66;99425.22;4459740;32;33003;-74
2022/01/30 06:03:57;;;;;;;5.45;2.17;;;;;;;6.53;63.12;99422.78;4459625;32;32149;-73
2022/01/30 06:06:25;;;;;;;5.05;2.20;;;;;;;6.75;62.31;99420.97;4446686;32;34034;-74
2022/01/30 06:09:12;;;;;;;5.15;2.35;;;;;;;6.86;61.96;99434.09;4486712;32;34208;-74
2022/01/30 06:11:39;;;;;;;7.20;3.03;;;;;;;6.56;62.51;99425.12;4481539;32;34084;-74
2022/01/30 06:14:07;;;;;;;5.47;2.20;;;;;;;6.81;62.06;99411.16;4471256;32;33625;-74
2022/01/30 06:16:35;;;;;;;6.37;2.22;;;;;;;6.49;62.82;99401.56;4472624;32;34428;-74
2022/01/30 06:19:04;;;;;;;5.72;2.15;;;;;;;6.50;62.95;99408.72;4472872;32;33302;-74
2022/01/30 06:21:36;;;;;;;5.40;2.37;;;;;;;6.60;62.57;99420.13;4446989;32;31334;-74
2022/01/30 06:24:11;;;;;;;5.78;2.47;;;;;;;6.44;63.08;99432.13;4472034;32;33526;-74
2022/01/30 06:26:41;;;;;;;5.65;2.10;;;;;;;6.71;62.09;99438.75;4472386;32;34900;-74
2022/01/30 06:29:16;;;;;;;5.50;2.00;;;;;;;6.73;61.69;99423.03;4472513;32;34164;-73
2022/01/30 06:31:53;;;;;;;5.15;2.15;;;;;;;6.47;62.89;99426.28;4459374;32;32898;-74
2022/01/30 06:34:29;;;;;;;5.85;2.40;;;;;;;6.74;62.11;99432.91;4459153;32;33157;-73
2022/01/30 06:37:03;;;;;;;6.00;2.80;;;;;;;6.83;61.94;99431.75;4472260;32;34206;-74
2022/01/30 06:39:38;;;;;;;5.82;2.33;;;;;;;6.97;61.54;99429.19;4472323;32;33948;-74
2022/01/30 06:42:09;;;;;;;8.15;3.50;;;;;;;7.15;61.00;99441.34;4471283;32;33182;-74
2022/01/30 06:44:45;;;;;;;5.03;2.35;;;;;;;7.30;60.99;99449.47;4461221;32;32054;-74
2022/01/30 06:47:23;;;;;;;4.28;1.85;;;;;;;7.24;61.09;99458.44;4472032;32;33373;-74
2022/01/30 06:49:52;;;;;;;4.15;1.85;;;;;;;7.26;61.22;99465.41;4471711;32;32413;-73
2022/01/30 06:52:25;;;;;;;5.57;2.37;;;;;;;7.38;60.54;99449.38;4472174;32;34334;-73
2022/01/30 06:55:04;;;;;;;5.30;1.52;;;;;;;7.49;60.06;99456.19;4459924;32;32321;-73
2022/01/30 06:57:32;;;;;;;4.68;1.55;;;;;;;7.56;59.63;99459.84;4486187;32;35068;-73
2022/01/30 07:00:10;;;;;;;2.50;1.23;;;;;;;7.55;59.48;99456.25;4484300;32;34334;-73
2022/01/30 07:02:48;;;;;;;18.87;8.80;;;;;;;7.57;59.43;99445.16;4486368;32;32541;-73
2022/01/30 07:05:24;;;;;;;4.25;2.12;;;;;;;7.71;58.07;99457.88;4479625;32;32738;-73
2022/01/30 07:07:52;;;;;;;4.62;0.82;;;;;;;7.86;57.90;99441.38;4459289;32;32941;-74
2022/01/30 07:10:24;;;;;;;1.17;0.70;;;;;;;8.01;57.10;99453.06;4472488;32;33935;-74
2022/01/30 07:12:52;;;;;;;1.30;0.55;;;;;;;8.03;56.42;99456.44;4456426;32;34054;-73
2022/01/30 07:15:22;;;;;;;4.87;1.83;;;;;;;7.79;55.88;99462.38;4466475;32;33218;-73
2022/01/30 07:17:50;;;;;;;5.80;1.52;;;;;;;7.71;56.80;99457.03;4469067;32;35451;-73
2022/01/30 07:20:21;;;;;;;3.35;1.25;;;;;;;8.12;55.03;99438.88;4465440;32;32587;-73
2022/01/30 07:22:49;;;;;;;5.75;1.55;;;;;;;8.00;55.13;99432.25;4456129;32;33152;-73
2022/01/30 07:25:22;;;;;;;1.35;0.93;;;;;;;8.03;55.13;99423.66;4450223;32;34753;-73
2022/01/30 07:27:50;;;;;;;2.40;0.70;;;;;;;8.06;54.77;99428.72;4469365;32;34572;-72
2022/01/30 07:30:17;;;;;;;2.70;0.90;;;;;;;7.85;55.09;99406.91;4485738;32;34136;-71
2022/01/30 07:32:47;;;;;;;2.08;0.88;;;;;;;7.85;55.28;99417.84;4446502;32;31517;-73
2022/01/30 07:35:23;;;;;;;2.70;0.75;;;;;;;7.98;54.94;99423.41;4484643;32;33768;-73
2022/01/30 07:37:56;;;;;;;3.05;0.70;;;;;;;7.89;53.84;99425.44;4459578;32;35155;-73
2022/01/30 07:40:23;;;;;;;4.95;2.20;;;;;;;7.89;53.25;99454.66;4471508;32;33940;-73
2022/01/30 07:42:56;;;;;;;2.83;1.00;;;;;;;8.03;53.48;99453.72;4485624;32;34486;-73
2022/01/30 07:45:30;;;;;;;8.23;2.75;;;;;;;8.47;51.39;99447.09;4470940;32;34369;-73
2022/01/30 07:48:02;;;;;;;4.25;0.82;;;;;;;8.32;51.95;99443.63;4469953;32;35421;-73
2022/01/30 07:50:37;;;;;;;3.15;0.68;;;;;;;8.24;50.11;99461.88;4459054;32;32373;-73
2022/01/30 07:53:07;;;;;;;12.23;4.68;;;;;;;8.18;50.05;99432.59;4455802;32;34046;-73
2022/01/30 07:55:43;;;;;;;10.65;5.37;;;;;;;8.47;49.36;99437.00;4455884;32;34025;-73
2022/01/30 07:58:17;;;;;;;5.87;2.72;;;;;;;8.14;47.97;99453.19;4455646;32;33010;-73
2022/01/30 08:00:53;;;;;;;4.82;2.08;;;;;;;8.29;48.13;99446.75;4456358;32;33893;-73
2022/01/30 08:03:22;;;;;;;3.78;1.20;;;;;;;8.42;47.56;99449.63;4460023;32;32572;-73
2022/01/30 08:05:50;;;;;;;4.70;1.87;;;;;;;8.21;48.36;99497.81;4442930;32;32026;-73
2022/01/30 08:08:18;;;;;;;5.50;0.90;;;;;;;8.54;47.87;99502.69;4442960;32;33093;-72
2022/01/30 08:10:50;;;;;;;2.72;1.10;;;;;;;8.36;48.09;99489.53;4455822;32;34575;-73
2022/01/30 08:13:20;;;;;;;3.55;0.98;;;;;;;8.49;48.93;99505.16;4455998;32;31716;-73
2022/01/30 08:15:49;;;;;;;4.18;0.82;;;;;;;8.09;52.33;99493.91;4465328;32;32296;-73
2022/01/30 08:18:20;;;;;;;3.10;1.10;;;;;;;8.06;53.50;99494.31;4463286;32;34786;-73
2022/01/30 08:20:54;;;;;;;9.68;2.50;;;;;;;8.13;53.22;99510.78;4464632;32;32824;-73
2022/01/30 08:23:33;;;;;;;6.97;2.00;;;;;;;8.49;52.56;99554.41;4483342;32;32974;-73
2022/01/30 08:26:07;;;;;;;3.50;1.25;;;;;;;8.50;53.00;99545.16;4460114;32;34450;-73
2022/01/30 08:28:40;;;;;;;4.68;1.00;;;;;;;8.35;54.40;99525.28;4457703;32;34329;-73
2022/01/30 08:31:13;;;;;;;3.95;1.12;;;;;;;8.38;55.12;99509.34;4470986;32;32413;-75
2022/01/30 08:33:45;;;;;;;4.22;1.10;;;;;;;8.44;54.50;99508.53;4458414;32;33657;-73
2022/01/30 08:36:24;;;;;;;4.35;1.37;;;;;;;8.42;54.37;99507.88;4458111;32;33961;-73
2022/01/30 08:38:54;;;;;;;5.78;1.10;;;;;;;8.67;53.97;99532.00;4482604;32;34151;-73
2022/01/30 08:41:25;;;;;;;2.95;1.00;;;;;;;8.50;54.01;99545.16;4455135;32;31979;-73
2022/01/30 08:43:56;;;;;;;3.47;1.35;;;;;;;8.31;54.72;99543.94;4483251;32;34001;-73
2022/01/30 08:46:24;;;;;;;6.82;1.00;;;;;;;8.11;54.71;99537.47;4456072;32;33856;-71
2022/01/30 08:48:53;;;;;;;8.68;3.03;;;;;;;8.45;53.71;99544.94;4468972;32;34168;-73
2022/01/30 08:51:23;;;;;;;3.55;1.08;;;;;;;8.23;53.15;99528.53;4470038;32;32459;-73
2022/01/30 08:53:57;;;;;;;4.18;1.20;;;;;;;8.05;52.38;99517.22;4484975;32;33300;-73
2022/01/30 08:56:25;;;;;;;3.72;1.20;;;;;;;8.55;52.10;99526.25;4485005;32;33611;-73
2022/01/30 08:58:58;;;;;;;8.05;0.90;;;;;;;8.62;51.10;99523.56;4472422;32;34651;-73
2022/01/30 09:01:32;;;;;;;2.60;0.70;;;;;;;8.49;49.75;99511.47;4487122;32;34045;-72
2022/01/30 09:04:03;;;;;;;4.85;1.83;;;;;;;8.60;48.99;99540.16;4486817;32;33330;-73
2022/01/30 09:06:38;;;;;;;4.25;1.08;;;;;;;8.71;48.74;99538.78;4473196;32;34573;-73
2022/01/30 09:09:11;;;;;;;4.82;1.05;;;;;;;8.54;48.26;99551.91;4486944;32;34470;-73
2022/01/30 09:11:47;;;;;;;5.03;1.15;;;;;;;8.72;47.76;99552.25;4473905;32;34599;-74
2022/01/30 09:14:17;;;;;;;4.43;1.08;;;;;;;8.49;47.88;99552.50;4472714;32;32876;-72
2022/01/30 09:16:47;;;;;;;2.85;0.90;;;;;;;8.65;47.27;99556.00;4459880;32;33422;-73
2022/01/30 09:19:44;;;;;;;3.55;0.98;;;;;;;8.66;47.30;99561.25;4465042;32;35264;-72
2022/01/30 09:22:16;;;;;;;4.50;1.20;;;;;;;8.58;45.88;99558.66;4485656;32;34099;-73
2022/01/30 09:24:49;;;;;;;7.37;2.08;;;;;;;8.81;45.41;99578.41;4473082;32;34216;-72
2022/01/30 09:27:20;;;;;;;14.07;4.10;;;;;;;8.71;46.16;99579.81;4460036;32;33023;-72
2022/01/30 09:29:50;;;;;;;14.98;6.70;;;;;;;8.52;46.23;99597.75;4472516;32;34371;-72
2022/01/30 09:32:18;;;;;;;7.95;1.90;;;;;;;8.97;44.91;99555.34;4472624;32;34239;-72
2022/01/30 09:34:48;;;;;;;4.93;1.08;;;;;;;9.18;45.04;99563.44;4472682;32;33157;-73
2022/01/30 09:37:18;;;;;;;7.93;1.58;;;;;;;9.13;44.82;99584.28;4472817;32;34390;-73
2022/01/30 09:39:59;;;;;;;18.33;6.53;;;;;;;9.18;45.75;99576.28;4459990;32;32961;-73
2022/01/30 09:42:29;;;;;;;7.60;2.33;;;;;;;9.59;44.13;99579.00;4460021;32;33357;-73
2022/01/30 09:45:03;;;;;;;3.33;0.75;;;;;;;9.81;43.21;99582.44;4472737;32;33188;-73
2022/01/30 09:47:37;;;;;;;4.75;1.55;;;;;;;9.66;42.89;99566.19;4456889;32;32643;-73
2022/01/30 09:50:09;;;;;;;2.70;1.10;;;;;;;9.49;43.12;99593.09;4458011;32;34713;-74
2022/01/30 09:52:47;;;;;;;3.60;1.00;;;;;;;9.31;44.06;99559.09;4479782;31;35019;-73
2022/01/30 09:55:18;;;;;;;5.65;1.55;;;;;;;9.60;43.87;99544.25;4475366;31;33150;-72
2022/01/30 09:57:53;;;;;;;6.78;1.58;;;;;;;8.95;45.09;99562.94;4474732;31;33173;-72
2022/01/30 10:00:23;;;;;;;7.05;2.25;;;;;;;8.68;46.42;99564.63;4487984;31;35028;-73
2022/01/30 10:02:54;;;;;;;8.75;3.72;;;;;;;8.89;47.46;99566.47;4462135;31;32582;-73
2022/01/30 10:05:35;;;;;;;4.90;1.80;;;;;;;9.06;46.52;99572.47;4488507;31;33444;-73
2022/01/30 10:08:05;;;;;;;10.35;1.50;;;;;;;9.28;46.09;99546.66;4475331;31;33180;-73
2022/01/30 10:10:42;;;;;;;12.95;4.00;;;;;;;9.35;45.87;99579.53;4486855;31;34037;-72
2022/01/30 10:13:15;;;;;;;13.38;6.05;;;;;;;9.30;45.77;99568.34;4475271;31;33480;-72
2022/01/30 10:15:52;;;;;;;3.95;1.30;;;;;;;9.11;45.18;99578.16;4502135;31;34218;-73
2022/01/30 10:18:26;;;;;;;3.25;1.23;;;;;;;8.46;46.22;99618.53;4502154;31;33637;-73
2022/01/30 10:21:04;;;;;;;5.25;1.00;;;;;;;8.11;48.66;99650.37;4486131;31;34429;-73
2022/01/30 10:23:39;;;;;;;3.25;0.60;;;;;;;8.03;51.56;99663.31;4456697;32;32498;-73
2022/01/30 10:26:18;;;;;;;3.90;0.90;;;;;;;7.75;51.18;99634.00;4441277;32;32634;-73
2022/01/30 10:28:51;;;;;;;3.00;0.70;;;;;;;7.56;52.21;99601.84;4469208;32;33519;-72
2022/01/30 10:31:24;;;;;;;2.42;0.90;;;;;;;7.21;51.32;99565.28;4456420;32;34327;-72
2022/01/30 10:33:56;;;;;;;7.47;1.05;;;;;;;7.09;50.33;99602.28;4428418;32;33114;-73
2022/01/30 10:36:30;;;;;;;4.15;1.30;;;;;;;7.28;49.42;99591.63;4444287;32;33009;-73
2022/01/30 10:39:22;;;;;;;5.72;1.30;;;;;;;7.59;48.23;99601.47;4456865;32;33787;-73
2022/01/30 10:41:54;;;;;;;4.55;1.50;;;;;;;7.73;47.71;99608.78;4444715;32;33977;-73
2022/01/30 10:44:31;;;;;;;6.93;1.65;;;;;;;7.70;47.54;99602.84;4452080;32;34492;-72
2022/01/30 10:47:05;;;;;;;4.80;1.42;;;;;;;7.75;47.28;99584.84;4443562;32;33869;-73
2022/01/30 10:49:44;;;;;;;8.38;2.95;;;;;;;8.04;46.39;99588.47;4456602;32;34501;-73
2022/01/30 10:52:19;;;;;;;7.32;2.28;;;;;;;8.15;45.29;99594.28;4446098;32;33002;-72
2022/01/30 10:54:49;;;;;;;5.90;1.83;;;;;;;8.23;43.82;99596.87;4468468;32;34220;-72
2022/01/30 10:57:19;;;;;;;2.78;0.73;;;;;;;8.27;43.93;99586.38;4449579;32;33380;-72
2022/01/30 10:59:53;;;;;;;8.30;1.02;;;;;;;8.09;43.37;99591.47;4455537;32;33816;-73
2022/01/30 11:02:28;;;;;;;6.50;1.70;;;;;;;8.67;42.57;99584.00;4463793;32;34659;-72
2022/01/30 11:05:05;;;;;;;29.17;10.88;;;;;;;8.77;43.23;99609.12;4480306;32;34576;-72
2022/01/30 11:07:40;;;;;;;7.05;1.37;;;;;;;8.91;43.60;99600.78;4462776;32;32016;-72
2022/01/30 11:10:19;;;;;;;3.00;1.08;;;;;;;9.31;41.21;99598.28;4482163;32;33373;-73
2022/01/30 11:13:07;;;;;;;6.82;1.00;;;;;;;9.37;41.09;99577.44;4460647;32;34460;-73
2022/01/30 11:15:38;;;;;;;4.18;1.40;;;;;;;9.57;40.57;99565.53;4468658;32;32515;-73
2022/01/30 11:18:08;;;;;;;4.28;1.00;;;;;;;9.69;40.10;99562.19;4470808;32;32720;-72
2022/01/30 11:20:39;;;;;;;3.72;0.95;;;;;;;9.22;40.26;99563.88;4458725;32;34680;-72
2022/01/30 11:23:09;;;;;;;6.53;1.30;;;;;;;9.16;40.59;99583.88;4470601;32;34457;-73
2022/01/30 11:25:40;;;;;;;6.47;1.25;;;;;;;9.35;40.50;99555.75;4470936;32;32377;-73
2022/01/30 11:28:17;;;;;;;;;;;;;;;9.33;40.05;99552.34;4472369;32;33843;-73
2022/01/30 11:30:50;;;;;;;6.72;1.40;;;;;;;9.62;39.06;99553.94;4472873;32;34691;-72
2022/01/30 11:33:21;;;;;;;6.18;1.85;;;;;;;9.10;39.27;99585.53;4471943;32;34610;-72
2022/01/30 11:35:52;;;;;;;14.48;3.35;;;;;;;9.22;39.93;99604.97;4458550;32;33784;-72
2022/01/30 11:38:22;;;;;;;5.32;1.17;;;;;;;9.09;41.51;99569.31;4471187;32;31680;-71
2022/01/30 11:41:09;;;;;;;5.22;1.65;;;;;;;8.98;44.60;99586.31;4471190;32;32208;-72
2022/01/30 11:43:40;;;;;;;9.13;3.00;;;;;;;8.69;45.45;99569.06;4471572;32;34454;-72
2022/01/30 11:46:13;;;;;;;7.00;1.33;;;;;;;8.64;44.87;99601.66;4485734;32;34985;-72
2022/01/30 11:48:44;;;;;;;4.93;1.20;;;;;;;8.15;47.56;99586.06;4484165;32;33136;-71
2022/01/30 11:51:12;;;;;;;4.78;1.17;;;;;;;8.49;47.59;99543.47;4484115;32;34264;-72
2022/01/30 11:53:40;;;;;;;7.22;1.23;;;;;;;8.30;48.01;99552.34;4483636;32;34509;-73
2022/01/30 11:56:08;;;;;;;3.70;1.02;;;;;;;8.34;44.77;99534.53;4473487;31;33878;-73
2022/01/30 11:58:46;;;;;;;4.95;1.10;;;;;;;8.46;43.63;99516.50;4487024;31;33475;-72
2022/01/30 12:01:35;;;;;;;6.20;1.15;;;;;;;8.24;43.09;99502.88;4474119;31;33423;-72
2022/01/30 12:04:09;;;;;;;4.82;1.10;;;;;;;8.57;42.23;99494.06;4474568;31;33775;-71
2022/01/30 12:06:47;;;;;;;5.25;1.23;;;;;;;9.04;41.05;99519.81;4461171;31;32349;-73
2022/01/30 12:09:15;;;;;;;6.07;1.20;;;;;;;8.94;40.30;99503.75;4474139;31;33836;-73
2022/01/30 12:11:47;;;;;;;7.25;1.40;;;;;;;9.01;40.01;99501.06;4473858;31;33262;-73
2022/01/30 12:14:24;;;;;;;6.72;1.30;;;;;;;9.16;39.39;99526.38;4486931;31;35386;-75
2022/01/30 12:16:55;;;;;;;6.40;1.55;;;;;;;9.08;39.67;99489.09;4486644;31;33917;-71
2022/01/30 12:19:42;;;;;;;3.85;1.30;;;;;;;9.33;39.66;99502.22;4487186;31;33248;-72
2022/01/30 12:22:16;;;;;;;6.22;1.30;;;;;;;9.33;37.78;99513.16;4473521;31;32079;-72
2022/01/30 12:24:47;;;;;;;6.50;1.42;;;;;;;9.03;38.00;99498.97;4486781;31;35446;-72
2022/01/30 12:27:21;;;;;;;6.28;1.17;;;;;;;8.88;38.07;99527.31;4487223;31;34021;-72
2022/01/30 12:29:51;;;;;;;2.35;0.75;;;;;;;8.81;38.11;99522.84;4487181;31;33882;-72
2022/01/30 12:32:22;;;;;;;5.12;1.05;;;;;;;8.75;38.95;99527.22;4474192;31;33682;-72
2022/01/30 12:35:06;;;;;;;13.95;2.17;;;;;;;8.62;39.57;99521.66;4502714;31;35248;-73
2022/01/30 12:37:40;;;;;;;6.35;1.65;;;;;;;8.64;39.01;99533.25;4488678;31;33827;-73
2022/01/30 12:40:11;;;;;;;4.70;1.10;;;;;;;8.84;39.14;99519.69;4475887;31;34116;-73
2022/01/30 12:42:40;;;;;;;8.10;1.20;;;;;;;8.81;39.30;99533.78;4488511;31;33560;-73
2022/01/30 12:45:15;;;;;;;3.22;1.00;;;;;;;8.69;39.60;99503.41;4475392;31;34037;-72
2022/01/30 12:47:49;;;;;;;5.70;1.40;;;;;;;8.91;38.79;99548.81;4489089;31;33890;-73
2022/01/30 12:50:18;;;;;;;3.75;1.00;;;;;;;9.02;38.54;99527.38;4488529;31;34134;-72
2022/01/30 12:52:51;;;;;;;8.57;1.35;;;;;;;8.78;38.85;99507.66;4475323;31;34301;-72
2022/01/30 12:55:25;;;;;;;5.18;1.00;;;;;;;9.18;38.53;99492.25;4472033;32;32985;-72
2022/01/30 12:57:59;;;;;;;4.30;1.20;;;;;;;8.91;38.46;99532.38;4473357;31;32570;-73
2022/01/30 13:00:32;;;;;;;5.90;1.65;;;;;;;8.78;39.38;99525.97;4488218;31;34006;-72